createdAt,value
2019-03-22T00:01:55.851Z,89.40
2019-03-22T00:04:28.828Z,90.70
2019-03-22T00:07:02.600Z,90.20
2019-03-22T00:09:35.542Z,90.80
2019-03-22T00:12:08.736Z,90.40
2019-03-22T00:14:41.941Z,90.40
2019-03-22T00:17:15.201Z,90.10
2019-03-22T00:19:48.249Z,87.90
2019-03-22T00:22:22.927Z,88.80
2019-03-22T00:24:55.822Z,89.00
2019-03-22T00:27:30.226Z,87.30
2019-03-22T00:30:04.299Z,86.20
2019-03-22T00:32:37.591Z,87.80
2019-03-22T00:35:10.779Z,88.90
2019-03-22T00:37:43.937Z,87.90
2019-03-22T00:40:17.878Z,87.30
2019-03-22T00:42:51.411Z,88.20
2019-03-22T00:45:27.552Z,85.30
2019-03-22T00:48:00.819Z,86.40
2019-03-22T00:50:34.153Z,86.50
2019-03-22T00:53:07.695Z,87.10
2019-03-22T00:55:42.832Z,85.20
2019-03-22T00:58:15.619Z,85.90
2019-03-22T01:00:49.023Z,86.30
2019-03-22T01:03:22.481Z,86.70
2019-03-22T01:05:55.527Z,85.90
2019-03-22T01:08:29.094Z,86.90
2019-03-22T01:11:02.296Z,85.20
2019-03-22T01:13:36.063Z,83.60
2019-03-22T01:16:09.001Z,86.10
2019-03-22T01:18:42.640Z,86.70
2019-03-22T01:21:15.474Z,85.40
2019-03-22T01:23:48.845Z,86.50
2019-03-22T01:26:21.974Z,86.70
2019-03-22T01:28:55.429Z,86.20
2019-03-22T01:31:28.737Z,84.40
2019-03-22T01:34:02.255Z,85.30
2019-03-22T01:36:35.590Z,83.50
2019-03-22T01:39:09.676Z,82.70
2019-03-22T01:41:45.873Z,84.20
2019-03-22T01:44:19.787Z,83.70
2019-03-22T01:46:52.571Z,84.30
2019-03-22T01:49:26.315Z,84.90
2019-03-22T01:51:59.507Z,83.10
2019-03-22T01:54:33.059Z,83.30
2019-03-22T01:57:06.555Z,83.70
2019-03-22T01:59:40.514Z,82.60
2019-03-22T02:02:13.792Z,80.60
2019-03-22T02:04:47.169Z,81.80
2019-03-22T02:07:20.265Z,81.10
2019-03-22T02:09:54.208Z,82.60
2019-03-22T02:12:27.140Z,77.80
2019-03-22T02:15:00.862Z,81.40
2019-03-22T02:17:34.124Z,80.70
2019-03-22T02:20:08.853Z,80.90
2019-03-22T02:22:41.790Z,80.10
2019-03-22T02:25:15.165Z,80.00
2019-03-22T02:27:48.401Z,79.30
2019-03-22T02:30:24.931Z,81.40
2019-03-22T02:32:58.031Z,82.20
2019-03-22T02:35:31.309Z,83.30
2019-03-22T02:38:04.129Z,81.50
2019-03-22T02:40:37.515Z,81.80
2019-03-22T02:43:10.638Z,82.40
2019-03-22T02:45:44.132Z,81.70
2019-03-22T02:48:17.214Z,80.50
2019-03-22T02:50:50.759Z,78.60
2019-03-22T02:53:24.027Z,81.30
2019-03-22T02:55:57.293Z,80.10
2019-03-22T02:58:30.275Z,80.40
2019-03-22T03:01:03.713Z,80.40
2019-03-22T03:03:36.784Z,80.20
2019-03-22T03:06:10.173Z,80.90
2019-03-22T03:08:43.054Z,82.00
2019-03-22T03:11:16.312Z,83.70
2019-03-22T03:13:49.354Z,82.40
2019-03-22T03:16:22.724Z,81.10
2019-03-22T03:18:55.680Z,82.40
2019-03-22T03:21:29.051Z,79.90
2019-03-22T03:24:02.038Z,81.40
2019-03-22T03:26:35.111Z,81.90
2019-03-22T03:29:08.628Z,82.10
2019-03-22T03:31:42.486Z,82.20
2019-03-22T03:34:15.362Z,81.00
2019-03-22T03:36:49.275Z,80.50
2019-03-22T03:39:22.572Z,80.00
2019-03-22T03:41:55.720Z,81.60
2019-03-22T03:44:28.771Z,80.60
2019-03-22T03:47:21.544Z,80.60
2019-03-22T03:49:54.591Z,79.70
2019-03-22T03:52:27.985Z,79.80
2019-03-22T03:55:00.804Z,80.10
2019-03-22T03:57:34.133Z,80.80
2019-03-22T04:00:07.951Z,80.80
2019-03-22T04:02:41.243Z,81.20
2019-03-22T04:05:14.713Z,81.60
2019-03-22T04:07:48.336Z,80.30
2019-03-22T04:10:21.351Z,81.40
2019-03-22T04:12:54.819Z,80.60
2019-03-22T04:15:28.201Z,80.20
2019-03-22T04:18:01.436Z,79.70
2019-03-22T04:20:38.643Z,79.40
2019-03-22T04:23:12.284Z,79.70
2019-03-22T04:25:45.272Z,80.10
2019-03-22T04:28:21.868Z,81.40
2019-03-22T04:30:54.810Z,80.20
2019-03-22T04:33:28.307Z,81.40
2019-03-22T04:36:01.386Z,81.90
2019-03-22T04:38:38.024Z,80.30
2019-03-22T04:41:10.933Z,80.20
2019-03-22T04:43:44.927Z,80.40
2019-03-22T04:46:21.465Z,80.70
2019-03-22T04:48:54.690Z,80.80
2019-03-22T04:51:27.763Z,79.70
2019-03-22T04:54:02.804Z,81.10
2019-03-22T04:56:35.856Z,80.30
2019-03-22T04:59:18.551Z,81.00
2019-03-22T05:01:46.039Z,81.80
2019-03-22T05:04:18.394Z,81.60
2019-03-22T05:06:51.426Z,81.80
2019-03-22T05:09:27.812Z,83.00
2019-03-22T05:12:04.312Z,82.70
2019-03-22T05:14:38.055Z,82.60
2019-03-22T05:17:11.088Z,83.50
2019-03-22T05:19:45.348Z,82.90
2019-03-22T05:22:18.462Z,84.30
2019-03-22T05:24:53.295Z,84.00
2019-03-22T05:27:26.578Z,82.80
2019-03-22T05:30:00.657Z,82.90
2019-03-22T05:32:33.655Z,82.50
2019-03-22T05:35:07.483Z,81.70
2019-03-22T05:37:40.459Z,82.60
2019-03-22T05:40:14.087Z,81.00
2019-03-22T05:42:47.179Z,81.70
2019-03-22T05:45:39.144Z,81.00
2019-03-22T05:48:11.998Z,79.70
2019-03-22T05:50:45.958Z,81.10
2019-03-22T05:53:18.999Z,81.70
2019-03-22T05:55:52.464Z,81.40
2019-03-22T05:58:25.742Z,81.40
2019-03-22T06:00:59.204Z,81.80
2019-03-22T06:03:32.047Z,81.60
2019-03-22T06:06:05.336Z,81.70
2019-03-22T06:08:38.488Z,83.10
2019-03-22T06:11:11.819Z,82.10
2019-03-22T06:13:44.707Z,83.20
2019-03-22T06:16:18.286Z,83.20
2019-03-22T06:18:51.645Z,83.30
2019-03-22T06:21:25.249Z,84.00
2019-03-22T06:23:58.527Z,84.60
2019-03-22T06:26:31.716Z,84.70
2019-03-22T06:29:04.853Z,83.50
2019-03-22T06:31:39.553Z,84.30
2019-03-22T06:34:12.640Z,84.00
2019-03-22T06:36:46.037Z,85.30
2019-03-22T06:39:19.046Z,84.60
2019-03-22T06:41:52.362Z,85.00
2019-03-22T06:44:25.672Z,85.20
2019-03-22T06:46:59.565Z,85.60
2019-03-22T06:49:32.546Z,85.50
2019-03-22T06:52:05.852Z,85.50
2019-03-22T06:54:38.913Z,85.80
2019-03-22T06:57:12.712Z,86.60
2019-03-22T06:59:45.657Z,86.30
2019-03-22T07:02:19.256Z,86.30
2019-03-22T07:04:52.648Z,86.90
2019-03-22T07:07:26.532Z,86.60
2019-03-22T07:09:59.571Z,86.10
2019-03-22T07:12:33.097Z,86.10
2019-03-22T07:15:06.610Z,86.10
2019-03-22T07:17:40.567Z,85.70
2019-03-22T07:20:13.701Z,85.90
2019-03-22T07:22:47.147Z,86.20
2019-03-22T07:25:20.408Z,86.60
2019-03-22T07:27:53.616Z,86.80
2019-03-22T07:30:27.339Z,87.30
2019-03-22T07:33:00.572Z,87.50
2019-03-22T07:35:34.015Z,87.60
2019-03-22T07:38:07.405Z,87.80
2019-03-22T07:40:40.315Z,88.10
2019-03-22T07:43:13.944Z,88.50
2019-03-22T07:45:46.919Z,87.70
2019-03-22T07:48:21.024Z,88.80
2019-03-22T07:50:54.018Z,88.90
2019-03-22T07:53:27.150Z,89.10
2019-03-22T07:56:00.576Z,89.10
2019-03-22T07:58:33.726Z,89.60
2019-03-22T08:01:06.977Z,89.30
2019-03-22T08:03:40.412Z,89.00
2019-03-22T08:06:13.574Z,89.00
2019-03-22T08:08:47.054Z,89.40
2019-03-22T08:11:20.694Z,89.70
2019-03-22T08:13:54.155Z,89.60
2019-03-22T08:16:27.688Z,90.20
2019-03-22T08:19:01.785Z,89.90
2019-03-22T08:21:34.992Z,90.00
2019-03-22T08:24:08.455Z,90.00
2019-03-22T08:26:41.892Z,90.00
2019-03-22T08:29:15.232Z,90.00
2019-03-22T08:31:48.307Z,90.00
2019-03-22T08:34:22.081Z,90.00
2019-03-22T08:36:55.401Z,90.30
2019-03-22T08:39:28.927Z,90.20
2019-03-22T08:42:02.809Z,90.00
2019-03-22T08:44:37.774Z,90.70
2019-03-22T08:47:10.581Z,91.20
2019-03-22T08:49:43.926Z,92.10
2019-03-22T08:52:17.216Z,92.80
2019-03-22T08:54:51.217Z,93.40
2019-03-22T08:57:27.702Z,94.10
2019-03-22T09:00:01.750Z,95.10
2019-03-22T09:02:35.565Z,95.20
2019-03-22T09:05:13.619Z,95.00
2019-03-22T09:07:47.919Z,95.00
2019-03-22T09:10:24.761Z,95.00
2019-03-22T09:12:57.908Z,95.30
2019-03-22T09:15:40.634Z,95.60
2019-03-22T09:18:06.989Z,95.90
2019-03-22T09:20:40.525Z,95.90
2019-03-22T09:23:13.607Z,96.20
2019-03-22T09:25:49.397Z,96.60
2019-03-22T09:28:41.342Z,96.70
2019-03-22T09:31:15.133Z,96.90
2019-03-22T09:33:48.383Z,96.90
2019-03-22T09:36:23.933Z,96.90
2019-03-22T09:38:57.597Z,96.90
2019-03-22T09:41:31.016Z,96.80
2019-03-22T09:44:04.717Z,96.60
2019-03-22T09:46:37.927Z,96.60
2019-03-22T09:49:11.264Z,96.60
2019-03-22T09:51:44.722Z,96.60
2019-03-22T09:54:18.364Z,96.60
2019-03-22T09:56:51.837Z,96.50
2019-03-22T09:59:25.042Z,96.40
2019-03-22T10:01:59.073Z,96.40
2019-03-22T10:04:32.769Z,96.60
2019-03-22T10:07:06.353Z,96.70
2019-03-22T10:09:39.554Z,96.60
2019-03-22T10:12:13.558Z,96.60
2019-03-22T10:14:50.688Z,96.70
2019-03-22T10:17:24.269Z,96.80
2019-03-22T10:19:57.266Z,97.30
2019-03-22T10:22:30.620Z,97.10
2019-03-22T10:25:03.536Z,96.90
2019-03-22T10:27:39.371Z,96.80
2019-03-22T10:30:14.027Z,96.60
2019-03-22T10:32:55.731Z,96.70
2019-03-22T10:35:26.365Z,96.60
2019-03-22T10:38:01.028Z,96.50
2019-03-22T10:40:31.944Z,96.30
2019-03-22T10:43:05.268Z,96.50
2019-03-22T10:45:38.237Z,96.50
2019-03-22T10:48:11.970Z,96.60
2019-03-22T10:50:45.165Z,96.40
2019-03-22T10:53:18.705Z,96.40
2019-03-22T10:55:53.435Z,96.00
2019-03-22T10:58:26.399Z,95.90
2019-03-22T11:00:59.451Z,96.10
2019-03-22T11:03:32.800Z,96.10
2019-03-22T11:06:07.091Z,96.00
2019-03-22T11:08:40.933Z,95.70
2019-03-22T11:11:13.965Z,95.00
2019-03-22T11:13:48.346Z,94.90
2019-03-22T11:16:21.114Z,94.60
2019-03-22T11:18:57.499Z,94.00
2019-03-22T11:21:30.735Z,94.00
2019-03-22T11:24:05.032Z,93.60
2019-03-22T11:26:38.004Z,93.60
2019-03-22T11:29:11.909Z,93.80
2019-03-22T11:31:44.825Z,93.70
2019-03-22T11:34:18.381Z,93.60
2019-03-22T11:36:51.602Z,93.50
2019-03-22T11:39:24.901Z,93.70
2019-03-22T11:41:59.663Z,94.00
2019-03-22T11:44:33.414Z,94.20
2019-03-22T11:47:08.026Z,94.20
2019-03-22T11:49:41.841Z,93.60
2019-03-22T11:52:18.511Z,93.80
2019-03-22T11:54:52.492Z,93.90
2019-03-22T11:57:25.715Z,94.10
2019-03-22T11:59:59.079Z,93.90
2019-03-22T12:02:32.312Z,94.30
2019-03-22T12:05:05.746Z,94.30
2019-03-22T12:07:43.640Z,94.40
2019-03-22T12:10:18.458Z,94.40
2019-03-22T12:12:51.438Z,94.60
2019-03-22T12:15:25.286Z,94.50
2019-03-22T12:17:58.185Z,94.70
2019-03-22T12:20:31.439Z,95.00
2019-03-22T12:23:04.426Z,94.90
2019-03-22T12:25:38.338Z,94.90
2019-03-22T12:28:11.227Z,94.90
2019-03-22T12:30:45.265Z,95.20
2019-03-22T12:33:19.795Z,95.10
2019-03-22T12:35:53.260Z,95.00
2019-03-22T12:38:26.398Z,95.00
2019-03-22T12:41:00.079Z,94.80
2019-03-22T12:43:34.242Z,95.20
2019-03-22T12:46:07.854Z,95.60
2019-03-22T12:48:40.979Z,95.80
2019-03-22T12:51:14.528Z,95.70
2019-03-22T12:53:47.486Z,95.70
2019-03-22T12:56:20.905Z,95.80
2019-03-22T12:58:53.853Z,95.60
2019-03-22T13:01:27.450Z,95.60
2019-03-22T13:04:00.710Z,95.60
2019-03-22T13:06:34.467Z,95.60
2019-03-22T13:09:08.390Z,95.60
2019-03-22T13:11:41.855Z,95.70
2019-03-22T13:14:14.864Z,95.80
2019-03-22T13:16:48.306Z,95.70
2019-03-22T13:19:21.233Z,95.90
2019-03-22T13:21:55.816Z,95.90
2019-03-22T13:24:29.225Z,96.00
2019-03-22T13:27:04.429Z,96.20
2019-03-22T13:29:37.515Z,96.20
2019-03-22T13:32:10.770Z,96.70
2019-03-22T13:34:43.768Z,97.10
2019-03-22T13:37:17.533Z,97.30
2019-03-22T13:39:51.446Z,97.10
2019-03-22T13:42:24.935Z,97.20
2019-03-22T13:44:57.957Z,97.50
2019-03-22T13:47:31.970Z,97.30
2019-03-22T13:50:07.898Z,97.30
2019-03-22T13:52:41.555Z,97.20
2019-03-22T13:55:14.750Z,97.20
2019-03-22T13:57:48.388Z,97.50
2019-03-22T14:00:21.486Z,97.70
2019-03-22T14:03:03.185Z,97.50
2019-03-22T14:05:29.782Z,97.60
2019-03-22T14:08:03.284Z,97.50
2019-03-22T14:10:37.291Z,97.60
2019-03-22T14:13:10.569Z,97.70
2019-03-22T14:15:43.681Z,97.60
2019-03-22T14:18:17.632Z,97.70
2019-03-22T14:20:50.570Z,97.60
2019-03-22T14:23:24.220Z,97.50
2019-03-22T14:25:57.336Z,97.40
2019-03-22T14:28:30.725Z,97.50
2019-03-22T14:31:03.836Z,97.80
2019-03-22T14:33:37.114Z,97.80
2019-03-22T14:36:11.294Z,97.80
2019-03-22T14:38:44.741Z,97.90
2019-03-22T14:41:17.725Z,97.70
2019-03-22T14:43:50.960Z,98.50
2019-03-22T14:46:24.390Z,98.60
2019-03-22T14:48:57.641Z,98.40
2019-03-22T14:51:30.607Z,98.20
2019-03-22T14:54:04.373Z,98.10
2019-03-22T14:56:37.285Z,98.10
2019-03-22T14:59:10.639Z,97.90
2019-03-22T15:01:43.684Z,97.50
2019-03-22T15:04:17.325Z,97.90
2019-03-22T15:06:50.346Z,98.30
2019-03-22T15:09:24.149Z,98.40
2019-03-22T15:11:57.335Z,98.20
2019-03-22T15:14:32.073Z,98.60
2019-03-22T15:17:24.923Z,98.10
2019-03-22T15:19:59.752Z,98.20
2019-03-22T15:22:46.479Z,98.70
2019-03-22T15:25:37.167Z,98.70
2019-03-22T15:28:11.387Z,98.50
2019-03-22T15:30:46.428Z,98.00
2019-03-22T15:33:35.811Z,98.40
2019-03-22T15:36:15.966Z,98.70
2019-03-22T15:39:06.741Z,98.50
2019-03-22T15:41:40.254Z,98.60
2019-03-22T15:44:14.671Z,98.10
2019-03-22T15:46:48.471Z,98.00
2019-03-22T15:49:21.881Z,97.70
2019-03-22T15:51:54.993Z,97.70
2019-03-22T15:54:28.103Z,97.70
2019-03-22T15:57:01.697Z,97.60
2019-03-22T15:59:34.907Z,97.40
2019-03-22T16:02:08.448Z,97.40
2019-03-22T16:04:41.358Z,97.40
2019-03-22T16:07:14.826Z,96.80
2019-03-22T16:09:47.841Z,96.50
2019-03-22T16:12:20.964Z,96.60
2019-03-22T16:14:54.219Z,96.60
2019-03-22T16:17:27.825Z,96.40
2019-03-22T16:20:01.222Z,96.40
2019-03-22T16:22:34.604Z,96.60
2019-03-22T16:25:08.488Z,96.00
2019-03-22T16:27:43.358Z,95.80
2019-03-22T16:30:17.442Z,95.80
2019-03-22T16:32:50.622Z,95.80
2019-03-22T16:35:23.545Z,95.40
2019-03-22T16:37:57.447Z,95.30
2019-03-22T16:40:30.465Z,95.20
2019-03-22T16:43:03.703Z,94.60
2019-03-22T16:45:37.838Z,94.80
2019-03-22T16:48:11.135Z,94.90
2019-03-22T16:50:44.650Z,94.90
2019-03-22T16:53:18.347Z,95.10
2019-03-22T16:55:51.259Z,95.00
2019-03-22T16:58:24.553Z,94.80
2019-03-22T17:00:57.482Z,95.10
2019-03-22T17:03:30.752Z,94.90
2019-03-22T17:06:03.935Z,95.00
2019-03-22T17:08:36.944Z,94.90
2019-03-22T17:11:09.793Z,95.00
2019-03-22T17:13:43.246Z,95.10
2019-03-22T17:16:16.339Z,94.80
2019-03-22T17:18:49.628Z,95.10
2019-03-22T17:21:22.585Z,95.20
2019-03-22T17:23:56.174Z,95.20
2019-03-22T17:26:29.058Z,95.10
2019-03-22T17:29:02.200Z,95.20
2019-03-22T17:31:35.239Z,95.80
2019-03-22T17:34:14.247Z,95.70
2019-03-22T17:36:42.559Z,95.60
2019-03-22T17:39:17.368Z,95.50
2019-03-22T17:41:49.895Z,95.70
2019-03-22T17:44:23.729Z,95.70
2019-03-22T17:46:57.148Z,95.60
2019-03-22T17:49:30.394Z,95.40
2019-03-22T17:52:03.416Z,95.50
2019-03-22T17:54:36.539Z,95.60
2019-03-22T17:57:18.401Z,95.60
2019-03-22T17:59:45.200Z,95.70
2019-03-22T18:02:18.165Z,96.10
2019-03-22T18:04:51.530Z,96.30
2019-03-22T18:07:24.545Z,96.40
2019-03-22T18:09:58.134Z,96.70
2019-03-22T18:12:30.933Z,96.80
2019-03-22T18:15:03.873Z,96.90
2019-03-22T18:17:36.717Z,96.80
2019-03-22T18:20:14.121Z,96.60
2019-03-22T18:22:47.379Z,96.30
2019-03-22T18:25:20.563Z,96.30
2019-03-22T18:27:53.657Z,96.30
2019-03-22T18:30:26.800Z,96.20
2019-03-22T18:32:59.865Z,96.30
2019-03-22T18:35:33.347Z,96.30
2019-03-22T18:38:07.643Z,96.70
2019-03-22T18:40:41.176Z,96.80
2019-03-22T18:43:14.352Z,96.80
2019-03-22T18:45:47.782Z,96.80
2019-03-22T18:48:20.745Z,97.40
2019-03-22T18:50:56.935Z,97.10
2019-03-22T18:53:28.338Z,96.70
2019-03-22T18:56:01.481Z,97.10
2019-03-22T18:58:34.457Z,96.90
2019-03-22T19:01:07.817Z,96.90
2019-03-22T19:03:40.622Z,96.80
2019-03-22T19:06:14.119Z,96.70
2019-03-22T19:08:47.109Z,96.70
2019-03-22T19:11:24.199Z,96.80
2019-03-22T19:13:56.982Z,97.00
2019-03-22T19:16:30.254Z,97.20
2019-03-22T19:19:03.258Z,97.00
2019-03-22T19:21:36.340Z,96.80
2019-03-22T19:24:09.290Z,97.30
2019-03-22T19:26:42.625Z,97.30
2019-03-22T19:29:16.119Z,97.10
2019-03-22T19:31:49.355Z,97.00
2019-03-22T19:34:22.380Z,97.10
2019-03-22T19:36:56.108Z,97.10
2019-03-22T19:39:29.113Z,97.40
2019-03-22T19:42:02.525Z,97.20
2019-03-22T19:44:35.518Z,97.20
2019-03-22T19:47:08.569Z,97.10
2019-03-22T19:49:41.483Z,97.00
2019-03-22T19:52:15.264Z,97.10
2019-03-22T19:54:48.451Z,97.10
2019-03-22T19:57:23.015Z,97.00
2019-03-22T19:59:56.923Z,97.10
2019-03-22T20:02:49.342Z,97.00
2019-03-22T20:05:33.090Z,97.20
2019-03-22T20:08:06.934Z,97.20
2019-03-22T20:10:39.961Z,96.90
2019-03-22T20:13:13.333Z,97.50
2019-03-22T20:15:46.357Z,97.40
2019-03-22T20:18:21.913Z,97.30
2019-03-22T20:20:53.574Z,97.40
2019-03-22T20:23:26.739Z,97.10
2019-03-22T20:26:00.231Z,97.40
2019-03-22T20:28:33.421Z,97.40
2019-03-22T20:31:06.643Z,97.10
2019-03-22T20:33:40.188Z,97.10
2019-03-22T20:36:13.327Z,97.40
2019-03-22T20:38:46.432Z,97.20
2019-03-22T20:41:19.186Z,97.10
2019-03-22T20:43:52.431Z,96.30
2019-03-22T20:46:25.591Z,95.10
2019-03-22T20:48:59.149Z,95.10
2019-03-22T20:51:32.184Z,94.80
2019-03-22T20:54:17.872Z,94.40
2019-03-22T20:56:51.323Z,94.20
2019-03-22T20:59:24.715Z,92.80
2019-03-22T21:01:57.870Z,92.50
2019-03-22T21:04:31.626Z,92.20
2019-03-22T21:07:05.075Z,92.10
2019-03-22T21:09:38.325Z,90.80
2019-03-22T21:12:11.362Z,90.50
2019-03-22T21:14:44.772Z,90.00
2019-03-22T21:17:17.692Z,89.10
2019-03-22T21:19:52.461Z,87.10
2019-03-22T21:22:25.853Z,87.00
2019-03-22T21:24:59.410Z,86.20
2019-03-22T21:27:32.488Z,84.60
2019-03-22T21:30:05.658Z,85.10
2019-03-22T21:32:45.282Z,83.40
2019-03-22T21:35:22.010Z,83.70
2019-03-22T21:37:47.179Z,82.90
2019-03-22T21:40:20.247Z,82.00
2019-03-22T21:42:53.273Z,82.00
2019-03-22T21:45:26.749Z,83.90
2019-03-22T21:47:59.524Z,86.50
2019-03-22T21:50:34.148Z,87.70
2019-03-22T21:53:07.585Z,87.10
2019-03-22T21:55:41.162Z,85.70
2019-03-22T21:58:14.518Z,85.80
2019-03-22T22:00:47.694Z,83.80
2019-03-22T22:03:20.806Z,83.40
2019-03-22T22:05:54.649Z,82.40
2019-03-22T22:08:27.740Z,82.70
2019-03-22T22:11:00.896Z,81.20
2019-03-22T22:13:33.838Z,81.80
2019-03-22T22:16:07.043Z,79.90
2019-03-22T22:18:39.757Z,79.70
2019-03-22T22:21:13.042Z,80.20
2019-03-22T22:23:45.929Z,82.70
2019-03-22T22:26:19.866Z,83.80
2019-03-22T22:28:52.845Z,85.20
2019-03-22T22:31:26.370Z,85.60
2019-03-22T22:33:59.384Z,87.30
2019-03-22T22:36:32.501Z,87.40
2019-03-22T22:39:06.518Z,84.80
2019-03-22T22:41:39.492Z,85.20
2019-03-22T22:44:12.337Z,85.60
2019-03-22T22:46:45.770Z,85.90
2019-03-22T22:49:18.841Z,85.70
2019-03-22T22:51:57.681Z,86.30
2019-03-22T22:54:30.185Z,86.60
2019-03-22T22:57:07.837Z,85.50
2019-03-22T22:59:40.866Z,85.50
2019-03-22T23:02:14.206Z,85.80
2019-03-22T23:04:47.327Z,85.30
2019-03-22T23:07:23.055Z,85.10
2019-03-22T23:09:56.049Z,84.90
2019-03-22T23:12:29.176Z,84.10
2019-03-22T23:15:02.245Z,84.20
2019-03-22T23:17:36.015Z,83.80
2019-03-22T23:20:09.423Z,82.70
2019-03-22T23:22:49.300Z,83.50
2019-03-22T23:25:22.381Z,82.00
2019-03-22T23:27:55.851Z,81.50
2019-03-22T23:30:28.984Z,81.20
2019-03-22T23:33:02.112Z,78.70
2019-03-22T23:35:35.251Z,77.70
2019-03-22T23:38:09.818Z,76.90
2019-03-22T23:40:43.249Z,77.80
2019-03-22T23:43:19.623Z,79.30
2019-03-22T23:45:53.104Z,78.90
2019-03-22T23:48:26.857Z,78.20
2019-03-22T23:51:00.057Z,76.00
2019-03-22T23:53:33.752Z,75.30
2019-03-22T23:56:07.335Z,74.80
2019-03-22T23:58:49.275Z,74.60
